Time;durP1;ratioP1;P1;durP2;ratioP2;P2;SDS_P1;SDS_P2;PMS_P1;PMS_P2;Temp;Humidity;BMP_temperature;BMP_pressure;BME280_temperature;BME280_humidity;BME280_pressure;Samples;Min_cycle;Max_cycle;Signal;HPM_P1;HPM_P2
2024/01/01 00:00:05;;;;;;;49.30;30.70;;;;;;;-0.51;100.00;97128.48;110366;1241;59681;-82
2024/01/01 00:03:00;;;;;;;37.70;23.90;;;;;;;-0.58;100.00;97122.87;110363;1238;71423;-82
2024/01/01 00:05:30;;;;;;;32.60;20.70;;;;;;;-0.62;100.00;97118.02;110403;1238;69149;-82
2024/01/01 00:08:00;;;;;;;37.60;24.80;;;;;;;-0.62;100.00;97116.70;110364;1241;69267;-82
2024/01/01 00:10:29;;;;;;;37.10;24.10;;;;;;;-0.65;100.00;97114.03;110417;1241;59691;-82
2024/01/01 00:12:59;;;;;;;30.50;18.70;;;;;;;-0.68;100.00;97111.58;110533;1241;59816;-82
2024/01/01 00:15:28;;;;;;;28.30;18.10;;;;;;;-0.68;100.00;97114.30;110377;1238;70691;-82
2024/01/01 00:17:58;;;;;;;24.70;17.90;;;;;;;-0.63;100.00;97118.10;110373;1241;68773;-82
2024/01/01 00:20:28;;;;;;;;;;;;;;;-0.59;100.00;97120.31;110355;1241;69304;-82
2024/01/01 00:22:58;;;;;;;23.60;15.20;;;;;;;-0.54;100.00;97117.96;110387;1241;59741;-82
2024/01/01 00:25:32;;;;;;;26.70;17.10;;;;;;;-0.51;100.00;97116.48;110338;1241;59668;-81
2024/01/01 00:28:04;;;;;;;24.20;15.60;;;;;;;-0.52;100.00;97111.55;110424;1242;70626;-82
2024/01/01 00:30:35;;;;;;;31.90;21.20;;;;;;;-0.56;100.00;97110.16;110391;1241;68493;-82
2024/01/01 00:33:05;;;;;;;28.70;20.00;;;;;;;-0.62;100.00;97107.11;110347;1241;68722;-82
2024/01/01 00:35:35;;;;;;;33.70;23.80;;;;;;;-0.67;100.00;97107.26;110348;1242;59723;-81
2024/01/01 00:38:04;;;;;;;29.30;22.20;;;;;;;-0.66;100.00;97111.34;110354;1242;59665;-81
2024/01/01 00:40:36;;;;;;;29.10;21.20;;;;;;;-0.65;100.00;97108.90;110502;1238;71419;-82
2024/01/01 00:43:07;;;;;;;25.20;17.20;;;;;;;-0.63;100.00;97111.40;110369;1242;68390;-81
2024/01/01 00:45:36;;;;;;;23.80;16.90;;;;;;;-0.62;100.00;97110.49;110405;1242;69117;-80
2024/01/01 00:48:16;;;;;;;;;;;;;;;-0.62;100.00;97111.04;110479;1241;59711;-82
2024/01/01 00:50:46;;;;;;;22.80;17.80;;;;;;;-0.64;100.00;97108.68;110467;1241;59665;-81
2024/01/01 00:53:16;;;;;;;35.00;24.50;;;;;;;-0.65;100.00;97108.21;110530;1241;70711;-80
2024/01/01 00:55:46;;;;;;;31.40;22.00;;;;;;;-0.70;100.00;97107.55;110511;1239;68635;-79
2024/01/01 00:58:16;;;;;;;32.80;21.50;;;;;;;-0.76;100.00;97102.59;110579;1238;69326;-79
2024/01/01 01:00:45;;;;;;;24.40;17.70;;;;;;;-0.83;100.00;97100.95;110374;1242;59734;-78
2024/01/01 01:03:15;;;;;;;28.10;18.80;;;;;;;-0.86;100.00;97097.98;110332;1242;59673;-74
2024/01/01 01:05:45;;;;;;;46.90;30.70;;;;;;;-0.85;100.00;97098.42;110571;1242;71539;-74
2024/01/01 01:08:15;;;;;;;;;;;;;;;-0.85;100.00;97095.34;110386;1241;69272;-74
2024/01/01 01:10:46;;;;;;;58.90;36.00;;;;;;;-0.91;100.00;97097.93;110397;1241;69363;-74
2024/01/01 01:13:16;;;;;;;50.20;34.80;;;;;;;-1.02;100.00;97090.05;110423;1241;59687;-74
2024/01/01 01:15:46;;;;;;;54.50;33.00;;;;;;;-1.07;100.00;97090.26;110538;1238;59651;-75
2024/01/01 01:18:16;;;;;;;42.30;29.50;;;;;;;-1.11;100.00;97091.05;110403;1238;71370;-75
2024/01/01 01:20:48;;;;;;;36.90;26.30;;;;;;;-1.14;100.00;97090.11;110353;1242;69826;-75
2024/01/01 01:23:17;;;;;;;29.40;20.90;;;;;;;-1.13;100.00;97087.55;110454;1241;69065;-75
2024/01/01 01:25:47;;;;;;;30.90;21.20;;;;;;;-1.14;100.00;97086.17;110329;1241;59747;-75
2024/01/01 01:28:22;;;;;;;29.00;19.30;;;;;;;-1.12;100.00;97089.02;110375;1242;59760;-74
2024/01/01 01:30:52;;;;;;;27.70;18.50;;;;;;;-1.10;100.00;97088.64;110434;1238;71363;-75
2024/01/01 01:33:23;;;;;;;30.90;20.10;;;;;;;-1.11;100.00;97087.45;110441;1238;68502;-75
2024/01/01 01:35:54;;;;;;;26.00;19.30;;;;;;;-1.08;100.00;97080.34;110309;1244;69385;-75
2024/01/01 01:38:24;;;;;;;23.10;15.90;;;;;;;-1.08;100.00;97077.61;110415;1241;59750;-75
2024/01/01 01:40:54;;;;;;;20.90;16.30;;;;;;;-1.10;100.00;97076.14;110468;1238;59689;-75
2024/01/01 01:43:25;;;;;;;29.10;19.10;;;;;;;-1.12;100.00;97074.49;110391;1238;71803;-74
2024/01/01 01:45:58;;;;;;;26.00;17.40;;;;;;;-1.16;100.00;97072.73;110338;1242;69788;-75
2024/01/01 01:48:31;;;;;;;23.90;15.40;;;;;;;-1.18;100.00;97075.17;110449;1238;68642;-75
2024/01/01 01:51:02;;;;;;;22.40;15.50;;;;;;;-1.17;100.00;97073.45;110371;1238;59756;-74
2024/01/01 01:53:34;;;;;;;17.80;13.50;;;;;;;-1.16;100.00;97070.52;110358;1238;59721;-74
2024/01/01 01:56:06;;;;;;;19.70;14.60;;;;;;;-1.13;100.00;97068.03;110422;1238;70450;-74
2024/01/01 01:58:37;;;;;;;17.90;12.20;;;;;;;-1.12;100.00;97066.61;110297;1243;68492;-74
2024/01/01 02:01:09;;;;;;;16.10;11.80;;;;;;;-1.11;100.00;97063.17;110475;1241;68372;-75
2024/01/01 02:03:39;;;;;;;15.30;9.70;;;;;;;-1.11;100.00;97061.30;110298;1242;59708;-75
2024/01/01 02:06:09;;;;;;;;;;;;;;;-1.11;100.00;97059.39;110433;1242;59672;-75
2024/01/01 02:08:39;;;;;;;12.10;9.20;;;;;;;-1.11;100.00;97056.00;110454;1241;70212;-74
2024/01/01 02:11:11;;;;;;;21.90;14.40;;;;;;;-1.11;100.00;97053.58;110549;1241;68483;-74
2024/01/01 02:13:41;;;;;;;17.20;11.40;;;;;;;-1.08;100.00;97050.06;110302;1242;67430;-75
2024/01/01 02:16:11;;;;;;;;;;;;;;;-1.05;100.00;97051.70;110451;1241;59675;-74
2024/01/01 02:18:42;;;;;;;17.30;11.50;;;;;;;-1.04;100.00;97050.98;110444;1241;59728;-74
2024/01/01 02:21:12;;;;;;;13.00;8.40;;;;;;;-0.98;100.00;97052.17;110481;1241;71420;-74
2024/01/01 02:23:42;;;;;;;15.00;11.70;;;;;;;-0.93;100.00;97053.04;110471;1242;68846;-75
2024/01/01 02:26:17;;;;;;;17.00;11.20;;;;;;;-0.93;100.00;97050.13;110403;1242;69849;-75
2024/01/01 02:28:47;;;;;;;16.10;10.00;;;;;;;-0.97;100.00;97046.13;110506;1241;60094;-74
2024/01/01 02:31:18;;;;;;;15.60;10.50;;;;;;;-1.00;100.00;97042.50;110368;1241;59738;-75
2024/01/01 02:33:48;;;;;;;16.10;12.00;;;;;;;-1.05;100.00;97039.52;110367;1241;70664;-75
2024/01/01 02:36:19;;;;;;;14.00;10.30;;;;;;;-1.09;100.00;97036.08;110329;1242;69302;-75
2024/01/01 02:38:49;;;;;;;15.50;10.90;;;;;;;-1.10;100.00;97033.20;110328;1241;69737;-74
2024/01/01 02:41:19;;;;;;;16.80;11.00;;;;;;;-1.14;100.00;97032.14;110342;1241;59731;-74
2024/01/01 02:43:50;;;;;;;14.20;10.20;;;;;;;-1.19;100.00;97027.85;110327;1238;59657;-75
2024/01/01 02:46:20;;;;;;;15.60;10.50;;;;;;;-1.23;100.00;97026.64;110352;1242;70666;-74
2024/01/01 02:48:51;;;;;;;13.10;9.80;;;;;;;-1.25;100.00;97024.13;110170;1244;69201;-74
2024/01/01 02:51:23;;;;;;;14.00;10.10;;;;;;;-1.26;100.00;97023.14;110383;1242;69321;-74
2024/01/01 02:53:53;;;;;;;12.60;9.20;;;;;;;-1.29;100.00;97023.23;110282;1242;60125;-74
2024/01/01 02:56:26;;;;;;;13.30;10.20;;;;;;;-1.28;100.00;97025.58;110438;1242;59630;-75
2024/01/01 02:58:57;;;;;;;27.30;18.60;;;;;;;-1.25;100.00;97027.71;110425;1238;70634;-75
2024/01/01 03:01:27;;;;;;;31.60;19.50;;;;;;;-1.27;100.00;97024.19;110391;1244;69366;-75
2024/01/01 03:03:58;;;;;;;;;;;;;;;-1.33;100.00;97023.16;110363;1241;69198;-75
2024/01/01 03:06:31;;;;;;;31.10;21.70;;;;;;;-1.37;100.00;97021.25;110351;1241;59689;-75
2024/01/01 03:09:03;;;;;;;23.10;16.10;;;;;;;-1.43;100.00;97016.30;110395;1241;59769;-75
2024/01/01 03:11:34;;;;;;;20.70;14.60;;;;;;;-1.47;100.00;97013.88;110373;1243;71402;-76
2024/01/01 03:14:04;;;;;;;20.10;13.50;;;;;;;-1.52;100.00;97009.76;110364;1241;69908;-75
2024/01/01 03:16:34;;;;;;;19.90;12.60;;;;;;;-1.56;100.00;97007.16;110335;1241;68612;-75
2024/01/01 03:19:04;;;;;;;21.60;14.30;;;;;;;-1.60;100.00;97003.16;110357;1238;59767;-74
2024/01/01 03:21:34;;;;;;;19.90;13.20;;;;;;;-1.57;100.00;97002.06;110319;1241;59669;-75
2024/01/01 03:24:04;;;;;;;15.80;11.60;;;;;;;-1.53;100.00;96999.37;110353;1238;71415;-74
2024/01/01 03:26:34;;;;;;;;;;;;;;;-1.52;100.00;96994.58;110422;1240;68453;-75
2024/01/01 03:29:05;;;;;;;18.00;12.50;;;;;;;-1.54;100.00;96993.93;110295;1242;69597;-75
2024/01/01 03:31:35;;;;;;;;;;;;;;;-1.58;100.00;96993.02;110374;1242;59681;-75
2024/01/01 03:34:07;;;;;;;19.00;11.80;;;;;;;-1.60;100.00;96989.50;110377;1241;59737;-74
2024/01/01 03:36:38;;;;;;;16.20;9.90;;;;;;;-1.56;100.00;96992.44;110364;1241;71448;-75
2024/01/01 03:39:10;;;;;;;16.60;12.00;;;;;;;-1.46;100.00;96985.81;110406;1238;69225;-75
2024/01/01 03:41:41;;;;;;;14.20;10.40;;;;;;;-1.40;100.00;96983.92;110335;1241;68293;-74
2024/01/01 03:44:15;;;;;;;16.30;9.90;;;;;;;-1.39;100.00;96986.45;110382;1242;59747;-74
2024/01/01 03:46:49;;;;;;;15.70;11.30;;;;;;;-1.41;100.00;96984.47;110377;1238;59725;-75
2024/01/01 03:49:22;;;;;;;16.00;12.10;;;;;;;-1.46;100.00;96984.98;110432;1242;70487;-74
2024/01/01 03:51:55;;;;;;;17.10;11.90;;;;;;;-1.49;100.00;96978.20;110410;1238;69358;-75
2024/01/01 03:54:27;;;;;;;15.30;10.10;;;;;;;-1.50;100.00;96978.24;110496;1238;68528;-75
2024/01/01 03:57:01;;;;;;;18.20;10.70;;;;;;;-1.48;100.00;96978.88;110424;1241;59744;-74
2024/01/01 03:59:36;;;;;;;15.10;10.50;;;;;;;-1.47;100.00;96980.23;110449;1241;59763;-74
2024/01/01 04:02:09;;;;;;;12.50;8.80;;;;;;;-1.46;100.00;96978.15;110478;1242;70617;-75
2024/01/01 04:04:44;;;;;;;14.70;10.10;;;;;;;-1.46;100.00;96977.98;110663;1238;69088;-76
2024/01/01 04:07:16;;;;;;;11.80;9.70;;;;;;;-1.47;100.00;96980.04;110708;1242;69442;-74
2024/01/01 04:09:50;;;;;;;11.10;9.30;;;;;;;-1.50;100.00;96977.89;110665;1238;59732;-74
2024/01/01 04:12:24;;;;;;;17.50;10.80;;;;;;;-1.53;100.00;96978.00;110958;1238;59629;-74
2024/01/01 04:14:57;;;;;;;17.30;11.70;;;;;;;-1.57;100.00;96973.49;111090;1238;70483;-74
2024/01/01 04:17:29;;;;;;;19.00;12.80;;;;;;;-1.59;100.00;96974.26;110466;1239;69106;-75
2024/01/01 04:20:02;;;;;;;17.10;11.50;;;;;;;-1.59;100.00;96965.88;110434;1239;69258;-74
2024/01/01 04:22:42;;;;;;;15.40;10.10;;;;;;;-1.59;100.00;96962.80;110415;1245;59663;-75
2024/01/01 04:25:23;;;;;;;14.10;9.30;;;;;;;-1.56;100.00;96966.66;110447;1242;59686;-75
2024/01/01 04:27:55;;;;;;;14.90;10.20;;;;;;;-1.53;100.00;96967.73;110442;1242;71407;-74
2024/01/01 04:30:29;;;;;;;13.60;9.50;;;;;;;-1.47;100.00;96965.84;110540;1242;69076;-75
2024/01/01 04:33:00;;;;;;;12.70;8.70;;;;;;;-1.42;100.00;96962.27;110561;1240;69307;-74
2024/01/01 04:35:33;;;;;;;14.30;9.10;;;;;;;-1.38;100.00;96962.83;110510;1242;59666;-74
2024/01/01 04:38:09;;;;;;;10.90;8.00;;;;;;;-1.34;100.00;96958.58;110395;1242;59679;-75
2024/01/01 04:40:44;;;;;;;10.60;8.50;;;;;;;-1.29;100.00;96958.09;110490;1238;71520;-76
2024/01/01 04:43:22;;;;;;;15.00;9.30;;;;;;;-1.25;100.00;96955.05;110428;1241;69048;-76
2024/01/01 04:45:58;;;;;;;11.40;7.30;;;;;;;-1.22;100.00;96955.62;110385;1242;69197;-75
2024/01/01 04:48:30;;;;;;;10.20;7.70;;;;;;;-1.20;100.00;96955.58;110458;1240;59759;-76
2024/01/01 04:51:07;;;;;;;10.20;7.20;;;;;;;-1.20;100.00;96957.10;110511;1241;59738;-76
2024/01/01 04:53:38;;;;;;;11.80;8.80;;;;;;;-1.22;100.00;96955.30;110530;1242;71223;-76
2024/01/01 04:56:12;;;;;;;11.90;8.40;;;;;;;-1.26;100.00;96954.23;110487;1242;69313;-76
2024/01/01 04:58:48;;;;;;;12.00;8.60;;;;;;;-1.31;100.00;96951.48;110502;1239;69631;-76
2024/01/01 05:01:27;;;;;;;10.60;7.80;;;;;;;-1.33;100.00;96954.45;110517;1239;59701;-75
2024/01/01 05:03:57;;;;;;;11.00;7.50;;;;;;;-1.34;100.00;96955.00;110519;1241;59715;-76
2024/01/01 05:06:30;;;;;;;9.90;7.20;;;;;;;-1.34;100.00;96956.19;110567;1241;71457;-75
2024/01/01 05:09:03;;;;;;;13.40;8.60;;;;;;;-1.35;100.00;96949.90;110499;1242;69220;-75
2024/01/01 05:11:41;;;;;;;13.30;8.50;;;;;;;-1.34;100.00;96945.42;110433;1240;68521;-75
2024/01/01 05:14:15;;;;;;;9.40;6.90;;;;;;;-1.32;100.00;96947.24;110418;1241;59741;-74
2024/01/01 05:16:47;;;;;;;12.70;10.00;;;;;;;-1.28;100.00;96943.17;110530;1242;59678;-76
2024/01/01 05:19:22;;;;;;;16.00;9.20;;;;;;;-1.23;100.00;96940.11;110601;1238;70444;-75
2024/01/01 05:22:03;;;;;;;12.50;8.60;;;;;;;-1.20;100.00;96940.34;110532;1242;68462;-75
2024/01/01 05:24:36;;;;;;;13.20;9.30;;;;;;;-1.15;100.00;96937.10;110469;1239;67378;-75
2024/01/01 05:27:09;;;;;;;13.90;7.70;;;;;;;-1.11;100.00;96933.89;110451;1242;59737;-75
2024/01/01 05:29:42;;;;;;;14.20;9.40;;;;;;;-1.08;100.00;96932.91;110388;1242;59689;-75
2024/01/01 05:32:16;;;;;;;13.30;8.70;;;;;;;-1.06;100.00;96932.35;110459;1238;70637;-75
2024/01/01 05:34:47;;;;;;;11.60;8.30;;;;;;;-1.06;100.00;96926.70;110513;1241;68342;-75
2024/01/01 05:37:19;;;;;;;11.40;8.00;;;;;;;-1.07;100.00;96926.36;110383;1242;69143;-75
2024/01/01 05:39:50;;;;;;;13.50;8.10;;;;;;;-1.07;100.00;96925.36;110496;1242;59738;-76
2024/01/01 05:42:22;;;;;;;11.00;7.50;;;;;;;-1.09;100.00;96925.44;110465;1241;59744;-76
2024/01/01 05:44:58;;;;;;;9.60;6.80;;;;;;;-1.12;100.00;96923.30;110430;1238;71324;-75
2024/01/01 05:47:28;;;;;;;11.20;7.90;;;;;;;-1.13;100.00;96917.71;110422;1242;68557;-75
2024/01/01 05:50:01;;;;;;;12.00;8.40;;;;;;;-1.13;100.00;96908.29;110501;1242;68363;-75
2024/01/01 05:52:35;;;;;;;13.00;8.20;;;;;;;-1.12;100.00;96906.70;110463;1241;59745;-75
2024/01/01 05:55:06;;;;;;;12.40;7.70;;;;;;;-1.09;100.00;96906.79;110366;1242;59675;-75
2024/01/01 05:57:36;;;;;;;13.00;8.80;;;;;;;-1.06;100.00;96900.17;110361;1238;70609;-75
2024/01/01 06:00:08;;;;;;;11.90;8.20;;;;;;;-1.02;100.00;96897.48;110384;1242;68589;-75
2024/01/01 06:02:38;;;;;;;15.60;10.50;;;;;;;-1.01;100.00;96891.30;110393;1242;69466;-76
2024/01/01 06:05:09;;;;;;;14.00;9.30;;;;;;;-1.01;100.00;96889.95;110453;1242;59691;-75
2024/01/01 06:07:39;;;;;;;13.00;8.00;;;;;;;-1.00;100.00;96890.09;110464;1242;59675;-75
2024/01/01 06:10:11;;;;;;;11.90;7.40;;;;;;;-0.97;100.00;96894.42;110398;1241;70283;-75
2024/01/01 06:12:41;;;;;;;9.10;6.30;;;;;;;-0.94;100.00;96893.11;110424;1241;69056;-75
2024/01/01 06:15:12;;;;;;;7.90;6.30;;;;;;;-0.91;100.00;96894.03;110444;1242;69697;-75
2024/01/01 06:17:42;;;;;;;9.60;6.80;;;;;;;-0.90;100.00;96889.69;110405;1242;59679;-75
2024/01/01 06:20:13;;;;;;;10.20;6.60;;;;;;;-0.85;100.00;96888.86;110367;1242;59734;-75
2024/01/01 06:22:43;;;;;;;7.60;5.70;;;;;;;-0.82;100.00;96890.79;110425;1242;71806;-75
2024/01/01 06:25:14;;;;;;;11.50;7.90;;;;;;;-0.77;100.00;96883.61;110369;1238;69390;-75
2024/01/01 06:27:43;;;;;;;13.00;9.40;;;;;;;-0.72;100.00;96886.33;110445;1242;68888;-75
2024/01/01 06:30:13;;;;;;;22.20;12.80;;;;;;;-0.65;100.00;96884.20;110504;1238;59741;-75
2024/01/01 06:32:44;;;;;;;25.90;15.90;;;;;;;-0.61;100.00;96877.19;110335;1242;59740;-76
2024/01/01 06:35:15;;;;;;;23.90;15.90;;;;;;;-0.58;100.00;96875.02;110476;1242;71591;-75
2024/01/01 06:37:45;;;;;;;17.40;12.30;;;;;;;-0.53;100.00;96874.84;110454;1242;68748;-75
2024/01/01 06:40:15;;;;;;;21.30;13.40;;;;;;;-0.48;100.00;96871.08;110388;1242;69593;-75
2024/01/01 06:42:45;;;;;;;16.70;12.20;;;;;;;-0.42;100.00;96868.13;110476;1242;59853;-75
2024/01/01 06:45:15;;;;;;;18.50;10.70;;;;;;;-0.36;100.00;96868.73;110440;1242;59675;-75
2024/01/01 06:47:45;;;;;;;17.30;10.40;;;;;;;-0.26;100.00;96865.45;110445;1240;72088;-75
2024/01/01 06:50:15;;;;;;;13.50;9.20;;;;;;;-0.18;100.00;96863.43;110502;1241;69846;-76
2024/01/01 06:52:45;;;;;;;;;;;;;;;-0.08;100.00;96862.17;110398;1242;68359;-76
2024/01/01 06:55:17;;;;;;;10.90;7.50;;;;;;;0.03;100.00;96860.70;110536;1238;59746;-75
2024/01/01 06:57:48;;;;;;;11.40;8.40;;;;;;;0.16;100.00;96862.61;110418;1242;59674;-75
2024/01/01 07:00:18;;;;;;;13.90;8.30;;;;;;;0.28;100.00;96858.35;110414;1241;70474;-75
2024/01/01 07:02:48;;;;;;;;;;;;;;;0.42;100.00;96852.97;110390;1238;69078;-75
2024/01/01 07:05:17;;;;;;;9.50;6.30;;;;;;;0.57;100.00;96851.14;110377;1242;67458;-76
2024/01/01 07:07:47;;;;;;;9.40;6.80;;;;;;;0.75;100.00;96850.52;110480;1238;59722;-75
2024/01/01 07:10:16;;;;;;;10.20;6.60;;;;;;;0.97;100.00;96848.73;110445;1238;59746;-75
2024/01/01 07:12:46;;;;;;;11.00;7.50;;;;;;;1.22;100.00;96848.16;110506;1241;71406;-76
2024/01/01 07:15:15;;;;;;;11.70;7.80;;;;;;;1.49;100.00;96845.08;110411;1241;69819;-76
2024/01/01 07:17:44;;;;;;;11.30;7.50;;;;;;;1.76;100.00;96843.83;110336;1242;68521;-75
2024/01/01 07:20:14;;;;;;;13.10;8.60;;;;;;;2.00;100.00;96842.85;110349;1243;59734;-76
2024/01/01 07:22:44;;;;;;;12.90;9.10;;;;;;;2.21;100.00;96836.16;110492;1241;59743;-75
2024/01/01 07:25:13;;;;;;;11.20;7.80;;;;;;;2.47;100.00;96838.52;110430;1238;70989;-75
2024/01/01 07:27:42;;;;;;;12.10;8.20;;;;;;;2.76;100.00;96832.22;110387;1242;69775;-76
2024/01/01 07:30:12;;;;;;;18.40;12.00;;;;;;;2.90;100.00;96834.62;110367;1242;68493;-76
2024/01/01 07:32:41;;;;;;;20.10;14.80;;;;;;;3.02;100.00;96838.48;110347;1241;59698;-76
2024/01/01 07:35:11;;;;;;;22.00;15.30;;;;;;;3.13;100.00;96841.00;110391;1242;59672;-76
2024/01/01 07:37:40;;;;;;;19.40;14.80;;;;;;;3.27;100.00;96842.33;110454;1241;71424;-76
2024/01/01 07:40:10;;;;;;;17.00;11.70;;;;;;;3.52;100.00;96837.55;110341;1240;69112;-76
2024/01/01 07:42:40;;;;;;;16.50;12.20;;;;;;;3.76;100.00;96834.34;110405;1242;69289;-76
2024/01/01 07:45:10;;;;;;;22.30;15.10;;;;;;;4.05;100.00;96838.45;110408;1241;59689;-76
2024/01/01 07:47:39;;;;;;;17.70;13.10;;;;;;;4.38;100.00;96834.89;110464;1242;59631;-77
2024/01/01 07:50:09;;;;;;;21.90;17.30;;;;;;;4.73;98.86;96833.00;110389;1239;72005;-77
2024/01/01 07:52:39;;;;;;;20.30;14.70;;;;;;;4.78;93.84;96834.79;110448;1241;68487;-77
2024/01/01 07:55:10;;;;;;;20.90;16.00;;;;;;;4.89;91.71;96831.90;110496;1242;68686;-76
2024/01/01 07:57:41;;;;;;;18.40;14.80;;;;;;;4.86;93.45;96832.42;110464;1242;59748;-77
2024/01/01 08:00:10;;;;;;;22.30;16.40;;;;;;;4.69;94.91;96835.15;110355;1244;59724;-76
2024/01/01 08:02:40;;;;;;;19.70;14.40;;;;;;;4.79;95.69;96835.77;110347;1238;70474;-77
2024/01/01 08:05:09;;;;;;;20.40;15.10;;;;;;;4.85;96.90;96836.44;110353;1241;69071;-76
2024/01/01 08:07:40;;;;;;;13.90;10.90;;;;;;;5.21;99.66;96837.75;110374;1238;69261;-77
2024/01/01 08:10:10;;;;;;;17.90;14.30;;;;;;;5.57;95.44;96837.48;110396;1241;59736;-76
2024/01/01 08:12:39;;;;;;;27.50;21.60;;;;;;;5.90;93.55;96833.33;110499;1242;59665;-77
2024/01/01 08:15:09;;;;;;;39.50;29.10;;;;;;;6.29;92.06;96834.68;110475;1242;70640;-75
2024/01/01 08:17:39;;;;;;;41.70;32.90;;;;;;;6.57;83.98;96833.88;110464;1238;68516;-76
2024/01/01 08:20:10;;;;;;;43.80;34.20;;;;;;;6.91;82.32;96824.54;110436;1242;69253;-76
2024/01/01 08:22:39;;;;;;;46.50;36.10;;;;;;;7.35;79.91;96819.45;110477;1242;59732;-76
2024/01/01 08:25:09;;;;;;;41.60;34.70;;;;;;;7.63;77.42;96823.20;110454;1242;59598;-76
2024/01/01 08:27:38;;;;;;;37.70;31.30;;;;;;;7.79;77.16;96821.55;110477;1241;70359;-77
2024/01/01 08:30:08;;;;;;;40.90;32.20;;;;;;;7.81;77.36;96819.70;110434;1241;70132;-77
2024/01/01 08:32:37;;;;;;;40.30;34.30;;;;;;;8.01;77.48;96817.38;110497;1245;69248;-76
2024/01/01 08:35:07;;;;;;;40.00;32.60;;;;;;;8.20;77.47;96816.52;110377;1241;60152;-76
2024/01/01 08:37:35;;;;;;;41.00;33.90;;;;;;;8.18;76.69;96814.41;110358;1239;59705;-78
2024/01/01 08:40:06;;;;;;;40.30;31.70;;;;;;;7.94;78.78;96817.20;110377;1241;71893;-78
2024/01/01 08:42:37;;;;;;;48.00;37.90;;;;;;;7.95;80.65;96822.30;110367;1241;68484;-78
2024/01/01 08:45:06;;;;;;;83.30;58.80;;;;;;;7.71;79.14;96820.55;110345;1242;68500;-78
2024/01/01 08:47:36;;;;;;;68.10;46.70;;;;;;;8.01;78.94;96816.48;110384;1242;60112;-77
2024/01/01 08:50:09;;;;;;;54.10;38.50;;;;;;;8.46;79.66;96817.42;110461;1242;59740;-78
2024/01/01 08:52:38;;;;;;;35.60;28.70;;;;;;;8.89;77.65;96816.15;110496;1238;71978;-77
2024/01/01 08:55:08;;;;;;;25.00;20.10;;;;;;;8.90;74.41;96809.61;110496;1242;68490;-77
2024/01/01 08:57:38;;;;;;;;;;;;;;;8.93;73.06;96803.85;110331;1238;70686;-77
2024/01/01 09:00:08;;;;;;;;;;;;;;;9.04;67.53;96803.36;110384;1242;59674;-77
2024/01/01 09:02:37;;;;;;;13.40;10.60;;;;;;;9.77;66.97;96801.52;110334;1241;59731;-77
2024/01/01 09:05:06;;;;;;;10.90;9.20;;;;;;;10.59;68.91;96790.69;110419;1241;71369;-77
2024/01/01 09:07:36;;;;;;;12.00;9.00;;;;;;;11.09;62.32;96782.20;110547;1243;69087;-77
2024/01/01 09:10:06;;;;;;;10.60;8.90;;;;;;;11.57;58.93;96774.74;110410;1241;69182;-78
2024/01/01 09:12:35;;;;;;;12.40;10.50;;;;;;;11.85;58.35;96768.59;110542;1238;59683;-77
2024/01/01 09:15:05;;;;;;;11.40;9.60;;;;;;;12.42;55.70;96755.67;110405;1238;59724;-76
2024/01/01 09:17:35;;;;;;;10.80;9.30;;;;;;;12.72;56.66;96744.21;110413;1243;71720;-76
2024/01/01 09:20:04;;;;;;;;;;;;;;;12.93;55.53;96742.98;110456;1242;70001;-76
2024/01/01 09:22:34;;;;;;;;;;;;;;;13.16;53.98;96734.90;110473;1242;67803;-75
2024/01/01 09:25:03;;;;;;;10.80;9.60;;;;;;;13.25;54.08;96731.58;110464;1243;59761;-76
2024/01/01 09:27:32;;;;;;;15.40;13.20;;;;;;;13.12;53.51;96727.89;110393;1242;59678;-74
2024/01/01 09:30:02;;;;;;;15.70;13.00;;;;;;;13.36;55.47;96724.31;110367;1242;70251;-76
2024/01/01 09:32:31;;;;;;;15.30;13.70;;;;;;;12.91;56.06;96719.37;110336;1242;69836;-77
2024/01/01 09:35:01;;;;;;;15.50;12.80;;;;;;;13.12;57.24;96714.64;110502;1241;69138;-77
2024/01/01 09:37:30;;;;;;;15.50;13.20;;;;;;;13.11;55.87;96715.92;110463;1244;59772;-76
2024/01/01 09:40:00;;;;;;;15.90;13.10;;;;;;;13.09;54.91;96711.45;110474;1242;59638;-76
2024/01/01 09:42:29;;;;;;;14.00;11.60;;;;;;;12.64;54.45;96708.42;110503;1242;71349;-76
2024/01/01 09:44:58;;;;;;;12.20;10.80;;;;;;;12.49;56.66;96710.30;110409;1241;69176;-77
2024/01/01 09:47:31;;;;;;;12.20;9.70;;;;;;;12.57;56.07;96705.05;110422;1242;69887;-75
2024/01/01 09:50:00;;;;;;;9.10;8.00;;;;;;;12.63;56.37;96699.96;110472;1241;59731;-76
2024/01/01 09:52:29;;;;;;;9.70;8.10;;;;;;;12.45;54.28;96692.53;110461;1241;59731;-76
2024/01/01 09:54:58;;;;;;;13.50;11.30;;;;;;;12.24;55.24;96686.96;110486;1238;71189;-75
2024/01/01 09:57:28;;;;;;;14.40;11.10;;;;;;;11.81;56.10;96686.55;110499;1244;69806;-75
2024/01/01 09:59:59;;;;;;;12.50;10.60;;;;;;;11.47;56.69;96693.94;110454;1238;69099;-75
2024/01/01 10:02:28;;;;;;;18.20;15.40;;;;;;;11.02;59.81;96689.33;110419;1238;59686;-76
2024/01/01 10:05:11;;;;;;;21.20;16.90;;;;;;;10.97;60.87;96688.54;110377;1242;59627;-76
2024/01/01 10:07:41;;;;;;;61.40;33.00;;;;;;;10.58;61.47;96692.20;110589;1241;71841;-76
2024/01/01 10:10:12;;;;;;;18.70;13.50;;;;;;;10.18;62.60;96695.48;110445;1238;69228;-76
2024/01/01 10:12:45;;;;;;;28.30;20.80;;;;;;;9.84;64.40;96698.12;110514;1241;69764;-76
2024/01/01 10:15:15;;;;;;;19.30;14.20;;;;;;;9.24;71.16;96697.45;110560;1242;59669;-76
2024/01/01 10:17:44;;;;;;;11.90;9.70;;;;;;;9.03;71.59;96699.11;110500;1242;59741;-76
2024/01/01 10:20:18;;;;;;;;;;;;;;;8.66;68.46;96696.59;110438;1241;71481;-75
2024/01/01 10:22:47;;;;;;;9.30;7.30;;;;;;;8.66;68.22;96702.34;110561;1240;68297;-76
2024/01/01 10:25:16;;;;;;;9.70;7.60;;;;;;;8.49;69.61;96700.52;110458;1242;69243;-76
2024/01/01 10:27:47;;;;;;;7.30;5.40;;;;;;;8.50;69.48;96698.73;110455;1242;59708;-76
2024/01/01 10:30:17;;;;;;;10.30;7.30;;;;;;;8.45;69.97;96696.45;110468;1241;59673;-76
2024/01/01 10:32:48;;;;;;;9.00;8.00;;;;;;;8.52;67.86;96691.58;110414;1242;71423;-76
2024/01/01 10:35:17;;;;;;;;;;;;;;;8.75;67.68;96687.98;110452;1242;69282;-77
2024/01/01 10:37:47;;;;;;;9.30;6.30;;;;;;;8.74;67.28;96681.56;110447;1241;69079;-75
2024/01/01 10:40:17;;;;;;;9.30;6.90;;;;;;;8.72;65.99;96676.50;110438;1242;59782;-75
2024/01/01 10:42:50;;;;;;;8.70;6.50;;;;;;;8.68;66.55;96676.31;110582;1241;60054;-77
2024/01/01 10:45:19;;;;;;;;;;;;;;;8.76;66.48;96671.56;110355;1242;71977;-77
2024/01/01 10:47:52;;;;;;;8.80;6.90;;;;;;;8.62;65.86;96669.48;110450;1241;68550;-76
2024/01/01 10:50:32;;;;;;;8.00;7.00;;;;;;;8.53;66.97;96667.58;110359;1241;69284;-75
2024/01/01 10:53:38;;;;;;;9.20;7.50;;;;;;;8.54;66.68;96661.27;110318;1242;59670;-75
2024/01/01 10:56:25;;;;;;;8.20;5.90;;;;;;;8.43;66.63;96662.27;110342;1243;59698;-77
2024/01/01 10:59:02;;;;;;;7.90;6.90;;;;;;;8.48;66.54;96662.05;110412;1241;71961;-75
2024/01/01 11:01:32;;;;;;;7.40;5.60;;;;;;;8.54;67.10;96657.89;110343;1246;69231;-75
2024/01/01 11:04:01;;;;;;;8.50;6.20;;;;;;;8.58;67.25;96646.69;110161;1241;468818;-76
2024/01/01 11:06:39;;;;;;;7.40;5.70;;;;;;;8.62;66.88;96641.28;110352;1241;59687;-75
2024/01/01 11:09:20;;;;;;;6.70;5.90;;;;;;;8.65;66.14;96634.69;110399;1240;59748;-75
2024/01/01 11:11:52;;;;;;;7.40;5.30;;;;;;;8.65;65.69;96625.14;110477;1242;71146;-75
2024/01/01 11:14:29;;;;;;;7.60;5.10;;;;;;;8.68;66.15;96620.71;110470;1242;69629;-76
2024/01/01 11:17:02;;;;;;;8.40;5.50;;;;;;;8.67;65.98;96616.77;110404;1242;68511;-76
2024/01/01 11:19:38;;;;;;;8.10;5.20;;;;;;;8.66;65.59;96619.33;110383;1240;59740;-75
2024/01/01 11:22:20;;;;;;;7.80;4.50;;;;;;;8.61;65.74;96621.44;110439;1242;59728;-78
2024/01/01 11:24:50;;;;;;;5.70;4.60;;;;;;;8.55;65.29;96611.98;110447;1242;72097;-75
2024/01/01 11:27:22;;;;;;;;;;;;;;;8.52;65.79;96615.06;110236;1246;69666;-76
2024/01/01 11:29:51;;;;;;;7.70;6.40;;;;;;;8.48;66.14;96612.41;110189;1248;69859;-75
2024/01/01 11:32:20;;;;;;;6.60;5.20;;;;;;;8.43;66.08;96603.73;110400;1242;59673;-76